Time;durP1;ratioP1;P1;durP2;ratioP2;P2;SDS_P1;SDS_P2;PMS_P1;PMS_P2;Temp;Humidity;BMP_temperature;BMP_pressure;BME280_temperature;BME280_humidity;BME280_pressure;Samples;Min_cycle;Max_cycle;Signal;HPM_P1;HPM_P2
2023/07/03 00:02:00;;;;;;;32.67;6.38;;;;;;;18.35;100.00;100990.38;5047353;28;20115;-61
2023/07/03 00:04:25;;;;;;;31.23;6.45;;;;;;;18.42;100.00;100997.91;5046300;28;20017;-63
2023/07/03 00:06:51;;;;;;;32.17;6.50;;;;;;;18.42;100.00;100997.91;5028011;28;20508;-60
2023/07/03 00:09:16;;;;;;;44.50;7.05;;;;;;;18.35;100.00;100991.25;5027432;28;20410;-62
2023/07/03 00:11:42;;;;;;;40.05;6.50;;;;;;;18.22;100.00;100990.34;5027683;28;20120;-61
2023/07/03 00:14:07;;;;;;;41.17;7.15;;;;;;;18.21;100.00;100989.47;5027562;28;20022;-60
2023/07/03 00:16:32;;;;;;;40.90;7.07;;;;;;;18.26;100.00;100991.84;5044242;28;20067;-62
2023/07/03 00:18:58;;;;;;;36.38;6.93;;;;;;;18.10;100.00;100982.16;5047629;28;20036;-63
2023/07/03 00:21:25;;;;;;;45.30;7.25;;;;;;;18.09;100.00;100992.91;5043263;28;20362;-66
2023/07/03 00:23:50;;;;;;;48.40;7.78;;;;;;;18.05;100.00;100986.88;5047174;28;20096;-58
2023/07/03 00:26:16;;;;;;;41.53;7.15;;;;;;;18.06;100.00;100986.78;5046950;28;20113;-59
2023/07/03 00:28:41;;;;;;;36.97;6.50;;;;;;;17.93;100.00;100985.84;5047467;28;20082;-60
2023/07/03 00:31:06;;;;;;;41.80;7.15;;;;;;;17.91;100.00;100982.44;5046238;28;20374;-61
2023/07/03 00:33:32;;;;;;;49.30;7.93;;;;;;;17.92;100.00;100985.03;5047769;28;20025;-60
2023/07/03 00:35:57;;;;;;;38.63;6.93;;;;;;;17.81;100.00;100982.16;5046396;28;20556;-66
2023/07/03 00:38:22;;;;;;;36.03;6.20;;;;;;;17.84;100.00;100995.28;5046787;28;20029;-61
2023/07/03 00:40:48;;;;;;;37.30;8.07;;;;;;;17.68;100.00;100993.59;5046748;28;20051;-61
2023/07/03 00:43:13;;;;;;;45.97;7.20;;;;;;;17.79;100.00;100989.41;5047078;28;20097;-61
2023/07/03 00:45:39;;;;;;;45.97;7.43;;;;;;;17.84;100.00;100992.63;5028789;28;20025;-60
2023/07/03 00:48:04;;;;;;;42.90;7.90;;;;;;;17.92;100.00;100994.81;5046691;28;20041;-60
2023/07/03 00:50:30;;;;;;;39.00;7.20;;;;;;;18.00;100.00;100999.69;5048658;28;20067;-63
2023/07/03 00:53:01;;;;;;;38.58;6.97;;;;;;;18.06;100.00;100996.59;5033091;28;20029;-63
2023/07/03 00:55:26;;;;;;;39.00;6.60;;;;;;;18.02;100.00;100995.09;5009031;28;20026;-62
2023/07/03 00:57:51;;;;;;;49.45;7.20;;;;;;;18.09;100.00;100995.56;5028860;28;20028;-62
2023/07/03 01:00:18;;;;;;;43.45;6.97;;;;;;;18.09;100.00;100990.22;5047053;28;20029;-58
2023/07/03 01:02:48;;;;;;;36.25;7.47;;;;;;;18.03;100.00;100976.31;5029022;28;20032;-60
2023/07/03 01:05:26;;;;;;;33.42;6.32;;;;;;;18.12;100.00;100987.41;5029124;28;20025;-59
2023/07/03 01:07:52;;;;;;;33.93;6.93;;;;;;;18.15;100.00;100985.38;5027626;28;20476;-65
2023/07/03 01:10:23;;;;;;;34.85;6.78;;;;;;;18.26;100.00;100981.16;5029680;28;20348;-61
2023/07/03 01:12:52;;;;;;;42.03;7.20;;;;;;;18.26;100.00;100983.84;5055180;28;20028;-65
2023/07/03 01:15:21;;;;;;;44.22;7.78;;;;;;;18.33;100.00;100984.31;5029729;28;20021;-61
2023/07/03 01:17:53;;;;;;;45.92;7.07;;;;;;;18.26;100.00;100982.03;5028757;28;20119;-65
2023/07/03 01:20:21;;;;;;;33.47;6.00;;;;;;;18.23;100.00;100979.56;5030236;28;20448;-58
2023/07/03 01:23:05;;;;;;;47.50;6.93;;;;;;;18.24;100.00;100989.25;5045933;28;20029;-61
2023/07/03 01:28:00;;;;;;;42.92;6.97;;;;;;;18.28;100.00;100988.13;5023429;28;20424;-63
2023/07/03 01:30:26;;;;;;;38.35;5.68;;;;;;;18.31;100.00;100979.06;5041984;28;20033;-62
2023/07/03 01:32:52;;;;;;;30.50;6.72;;;;;;;18.33;100.00;100982.47;5025640;28;20040;-61
2023/07/03 01:35:19;;;;;;;31.02;6.18;;;;;;;18.38;100.00;100987.53;5027568;28;20459;-64
2023/07/03 01:37:49;;;;;;;38.05;6.68;;;;;;;18.36;100.00;100982.28;5022611;28;20259;-63
2023/07/03 01:40:16;;;;;;;27.60;5.68;;;;;;;18.39;100.00;100982.09;5024753;28;20033;-64
2023/07/03 01:42:43;;;;;;;30.05;5.63;;;;;;;18.29;100.00;100981.84;5024868;28;20033;-58
2023/07/03 01:45:09;;;;;;;32.53;5.38;;;;;;;18.33;100.00;100986.97;5024194;28;20033;-62
2023/07/03 01:47:36;;;;;;;26.35;5.03;;;;;;;18.23;100.00;100984.91;5027047;28;20056;-64
2023/07/03 01:50:01;;;;;;;21.25;4.43;;;;;;;18.30;100.00;100980.00;5026166;28;20089;-64
2023/07/03 01:52:34;;;;;;;33.00;4.50;;;;;;;18.33;100.00;100978.97;5025581;28;20148;-63
2023/07/03 01:55:03;;;;;;;21.83;4.65;;;;;;;18.34;100.00;100980.69;5026197;28;20025;-63
2023/07/03 01:57:44;;;;;;;27.05;4.95;;;;;;;18.40;100.00;100982.97;5025206;28;20030;-61
2023/07/03 02:00:13;;;;;;;20.45;3.72;;;;;;;18.32;100.00;100978.09;5025339;28;20053;-62
2023/07/03 02:02:40;;;;;;;17.98;3.97;;;;;;;18.37;100.00;100978.69;5025525;28;20041;-60
2023/07/03 02:05:08;;;;;;;26.85;4.35;;;;;;;18.32;100.00;100980.78;5041445;28;20461;-64
2023/07/03 02:07:35;;;;;;;20.13;4.17;;;;;;;18.32;100.00;100975.44;5041069;28;20029;-56
2023/07/03 02:10:02;;;;;;;21.95;3.72;;;;;;;18.44;99.86;100973.78;5042934;28;20032;-63
2023/07/03 02:12:28;;;;;;;20.92;3.70;;;;;;;18.36;99.29;100982.28;5029451;28;20112;-64
2023/07/03 02:14:54;;;;;;;11.02;3.03;;;;;;;18.27;92.98;100978.41;5029470;28;20425;-62
2023/07/03 02:17:19;;;;;;;13.57;3.08;;;;;;;18.34;91.43;100973.53;5030505;28;20358;-59
2023/07/03 02:19:44;;;;;;;13.40;2.30;;;;;;;18.25;84.84;100990.13;5029723;28;20029;-64
2023/07/03 02:22:10;;;;;;;8.75;2.33;;;;;;;18.28;82.16;100980.13;5029451;28;20452;-63
2023/07/03 02:24:35;;;;;;;8.10;1.90;;;;;;;18.30;80.19;100974.69;5029086;28;20168;-64
2023/07/03 02:27:01;;;;;;;4.43;1.70;;;;;;;18.30;79.77;100972.00;5041545;28;20048;-64
2023/07/03 02:29:26;;;;;;;5.85;1.65;;;;;;;18.31;79.81;100977.25;5049044;28;20632;-63
2023/07/03 02:31:51;;;;;;;9.75;2.00;;;;;;;18.31;80.08;100979.06;5050176;28;20064;-64
2023/07/03 02:34:17;;;;;;;5.70;1.88;;;;;;;18.28;80.13;100977.47;5049584;28;20025;-64
2023/07/03 02:36:46;;;;;;;10.90;1.90;;;;;;;18.30;80.34;100974.69;5031102;28;20035;-63
2023/07/03 02:39:11;;;;;;;8.13;2.35;;;;;;;18.26;80.91;100973.16;5048749;28;20055;-63
2023/07/03 02:41:37;;;;;;;9.30;1.95;;;;;;;18.19;81.63;100973.56;5049011;28;20473;-63
2023/07/03 02:44:02;;;;;;;8.52;2.45;;;;;;;18.18;82.40;100976.31;5048994;28;20028;-63
2023/07/03 02:46:27;;;;;;;7.25;1.90;;;;;;;18.05;82.68;100984.22;5048770;28;20029;-59
2023/07/03 02:48:53;;;;;;;9.57;2.22;;;;;;;18.08;82.48;100989.38;5014698;28;20048;-64
2023/07/03 02:51:19;;;;;;;7.65;2.13;;;;;;;18.05;82.27;100984.22;5049077;28;20098;-63
2023/07/03 02:53:44;;;;;;;11.18;2.42;;;;;;;18.04;81.38;100987.84;5048629;28;20472;-61
2023/07/03 02:56:10;;;;;;;10.57;2.28;;;;;;;18.09;81.14;100974.25;5047837;28;20035;-64
2023/07/03 02:58:35;;;;;;;11.52;2.30;;;;;;;18.14;80.60;100978.34;5049451;28;20029;-63
2023/07/03 03:01:01;;;;;;;9.27;1.77;;;;;;;18.04;80.98;100974.53;5048127;28;20021;-65
2023/07/03 03:03:27;;;;;;;8.30;2.03;;;;;;;18.09;79.72;100977.72;5049359;28;20029;-63
2023/07/03 03:05:53;;;;;;;9.38;2.13;;;;;;;18.01;79.77;100988.91;5048481;28;20461;-65
2023/07/03 03:08:18;;;;;;;6.50;1.65;;;;;;;18.12;79.76;100980.25;5049150;28;20032;-61
2023/07/03 03:10:43;;;;;;;8.90;2.40;;;;;;;17.96;80.21;100971.47;5048234;28;20025;-63
2023/07/03 03:13:09;;;;;;;7.05;1.60;;;;;;;18.05;80.05;100976.22;5049421;28;20029;-63
2023/07/03 03:15:35;;;;;;;5.90;1.80;;;;;;;17.99;79.71;100965.94;5048081;28;20384;-64
2023/07/03 03:18:01;;;;;;;7.93;2.03;;;;;;;17.96;80.12;100955.47;5048421;28;20033;-62
2023/07/03 03:20:27;;;;;;;8.35;1.67;;;;;;;18.02;80.58;100963.97;5048701;28;20468;-64
2023/07/03 03:22:52;;;;;;;8.20;1.90;;;;;;;17.95;81.59;100967.97;5031336;28;20030;-61
2023/07/03 03:25:17;;;;;;;5.72;1.75;;;;;;;18.01;81.56;100961.38;5028851;28;20477;-63
2023/07/03 03:27:43;;;;;;;10.60;2.22;;;;;;;17.98;81.56;100972.25;5023974;28;20064;-65
2023/07/03 03:30:09;;;;;;;5.00;1.65;;;;;;;17.93;81.95;100964.53;5048310;28;20025;-63
2023/07/03 03:32:34;;;;;;;13.50;2.25;;;;;;;17.91;82.55;100972.63;5047847;28;20079;-65
2023/07/03 03:35:00;;;;;;;5.97;1.80;;;;;;;17.89;83.02;100969.22;5048319;28;20053;-64
2023/07/03 03:37:26;;;;;;;10.50;2.33;;;;;;;17.84;83.96;100965.97;5047152;28;20051;-61
2023/07/03 03:39:51;;;;;;;6.38;2.10;;;;;;;17.83;85.94;100968.72;5048350;28;20515;-61
2023/07/03 03:42:17;;;;;;;8.23;2.25;;;;;;;17.84;86.10;100968.63;5047574;28;20436;-66
2023/07/03 03:44:42;;;;;;;10.32;2.40;;;;;;;17.77;87.24;100969.97;5048517;28;20108;-63
2023/07/03 03:47:08;;;;;;;8.75;2.00;;;;;;;17.75;86.78;100974.53;5047658;28;20025;-66
2023/07/03 03:49:33;;;;;;;9.48;1.92;;;;;;;17.71;85.88;100975.69;5048496;28;20024;-63
2023/07/03 03:51:58;;;;;;;10.20;2.30;;;;;;;17.70;85.13;100964.16;5046029;28;20115;-64
2023/07/03 03:54:26;;;;;;;10.00;2.60;;;;;;;17.77;85.05;100981.50;5047443;28;20035;-61
2023/07/03 03:56:51;;;;;;;8.63;1.98;;;;;;;17.71;84.90;100986.34;5047345;28;20023;-62
2023/07/03 03:59:17;;;;;;;14.35;2.70;;;;;;;17.67;85.78;100986.53;5048486;28;20029;-63
2023/07/03 04:01:42;;;;;;;9.15;2.00;;;;;;;17.72;85.66;100990.72;5047597;28;20460;-65
2023/07/03 04:04:08;;;;;;;10.43;2.20;;;;;;;17.72;86.21;100982.72;5044392;28;20031;-55
2023/07/03 04:06:35;;;;;;;12.95;2.25;;;;;;;17.73;86.69;100979.97;5048519;28;20083;-61
2023/07/03 04:09:01;;;;;;;10.13;2.20;;;;;;;17.67;87.23;100978.53;5047485;28;20048;-61
2023/07/03 04:11:27;;;;;;;13.18;2.80;;;;;;;17.55;87.52;100987.31;5047512;28;20476;-66
2023/07/03 04:13:53;;;;;;;10.77;2.40;;;;;;;17.51;88.29;100983.09;5047658;28;20027;-61
2023/07/03 04:16:18;;;;;;;9.88;2.13;;;;;;;17.55;88.24;100982.81;5048116;28;20544;-60
2023/07/03 04:18:43;;;;;;;9.35;2.33;;;;;;;17.46;88.47;100982.53;5047349;28;20070;-64
2023/07/03 04:21:09;;;;;;;10.15;2.55;;;;;;;17.53;88.49;100982.06;5047335;28;20112;-64
2023/07/03 04:23:34;;;;;;;12.57;2.50;;;;;;;17.52;88.30;100990.16;5046837;28;20433;-64
2023/07/03 04:26:00;;;;;;;16.40;2.63;;;;;;;17.64;88.02;100985.88;5046506;28;20041;-64
2023/07/03 04:28:26;;;;;;;12.05;2.60;;;;;;;17.66;88.60;100991.97;5029978;28;20021;-58
2023/07/03 04:30:51;;;;;;;11.57;2.15;;;;;;;17.69;89.00;100989.09;5047740;28;20372;-62
2023/07/03 04:33:17;;;;;;;11.57;2.33;;;;;;;17.72;89.21;100988.03;5060254;28;20445;-64
2023/07/03 04:35:45;;;;;;;9.95;2.10;;;;;;;17.76;89.26;100994.94;5047862;28;20025;-66
2023/07/03 04:38:10;;;;;;;13.30;3.05;;;;;;;17.67;89.45;100989.19;5029412;28;20388;-61
2023/07/03 04:40:37;;;;;;;14.05;2.55;;;;;;;17.74;89.00;100992.34;5047647;28;20029;-65
2023/07/03 04:43:02;;;;;;;9.80;2.25;;;;;;;17.84;89.17;100992.63;5062624;28;20426;-63
2023/07/03 04:45:30;;;;;;;10.68;2.10;;;;;;;17.88;89.70;100995.97;5047545;28;20153;-66
2023/07/03 04:47:55;;;;;;;18.92;2.90;;;;;;;17.89;89.77;100992.34;5062532;28;20057;-66
2023/07/03 04:50:24;;;;;;;5.07;1.98;;;;;;;17.79;89.72;100994.75;5046742;28;20084;-62
2023/07/03 04:52:50;;;;;;;;;;;;;;;17.89;89.48;100990.53;5047187;28;20029;-65
2023/07/03 04:55:17;;;;;;;10.52;2.42;;;;;;;17.92;89.11;100995.69;5047260;28;19924;-67
2023/07/03 04:57:43;;;;;;;8.50;2.50;;;;;;;18.00;89.04;101002.34;5047537;28;20021;-55
2023/07/03 05:00:15;;;;;;;9.25;2.40;;;;;;;18.00;89.27;101002.34;5062489;28;20028;-64
2023/07/03 05:02:44;;;;;;;13.80;2.78;;;;;;;18.08;89.14;100991.16;5027355;28;20768;-66
2023/07/03 05:05:10;;;;;;;12.32;2.75;;;;;;;18.06;89.21;101001.94;5026289;28;20030;-59
2023/07/03 05:07:37;;;;;;;13.55;2.42;;;;;;;18.03;89.59;101007.47;5043845;28;20025;-60
2023/07/03 05:10:03;;;;;;;11.63;2.20;;;;;;;18.08;88.73;101000.03;5046474;28;20419;-65
2023/07/03 05:12:28;;;;;;;8.95;2.28;;;;;;;18.16;88.62;101008.44;5046517;28;20028;-60
2023/07/03 05:14:54;;;;;;;14.80;2.05;;;;;;;18.19;88.18;101002.91;5047082;28;20028;-63
2023/07/03 05:17:20;;;;;;;9.50;2.20;;;;;;;18.33;88.15;101002.97;5046351;28;20035;-63
2023/07/03 05:19:45;;;;;;;14.52;2.50;;;;;;;18.44;88.12;101001.34;5045731;28;20032;-62
2023/07/03 05:22:11;;;;;;;7.60;1.80;;;;;;;18.42;86.55;101005.91;5044829;28;20049;-63
2023/07/03 05:24:36;;;;;;;9.18;2.50;;;;;;;18.35;86.66;101028.59;5046508;28;20036;-65
2023/07/03 05:27:01;;;;;;;9.18;2.42;;;;;;;18.53;86.78;101012.34;5052666;28;20183;-63
2023/07/03 05:29:27;;;;;;;14.15;2.90;;;;;;;18.53;86.41;101009.69;5066713;28;20025;-61
2023/07/03 05:31:52;;;;;;;14.25;2.40;;;;;;;18.40;86.43;101018.50;5059463;28;20634;-61
2023/07/03 05:34:17;;;;;;;10.13;2.25;;;;;;;18.49;85.80;101019.72;5046574;28;20032;-66
2023/07/03 05:36:43;;;;;;;8.13;2.40;;;;;;;18.37;86.62;101020.50;5044255;28;20024;-62
2023/07/03 05:39:08;;;;;;;7.47;2.10;;;;;;;18.42;86.65;101021.91;5046162;28;20508;-60
2023/07/03 05:41:33;;;;;;;10.40;2.63;;;;;;;18.59;87.43;101021.75;5045769;28;20020;-59
2023/07/03 05:43:59;;;;;;;13.32;2.75;;;;;;;18.68;87.69;101024.69;5045560;28;20389;-63
2023/07/03 05:46:24;;;;;;;10.55;2.10;;;;;;;18.52;87.08;101018.66;5049449;28;20044;-63
2023/07/03 05:48:50;;;;;;;12.73;2.47;;;;;;;18.57;86.60;101021.84;5049481;28;20023;-63
2023/07/03 05:51:15;;;;;;;11.77;2.33;;;;;;;18.60;86.76;101036.84;5049440;28;20053;-62
2023/07/03 05:53:41;;;;;;;9.93;2.40;;;;;;;18.58;85.50;101026.25;5029249;28;20083;-65
2023/07/03 05:56:06;;;;;;;12.20;2.75;;;;;;;18.59;86.44;101019.97;5048711;28;20029;-65
2023/07/03 05:58:32;;;;;;;15.18;2.45;;;;;;;18.62;84.57;101018.91;5041425;28;20025;-63
2023/07/03 06:00:58;;;;;;;13.02;2.28;;;;;;;18.65;83.33;101024.91;5028888;28;20061;-61
2023/07/03 06:03:24;;;;;;;14.13;2.45;;;;;;;18.68;82.48;101032.72;5022345;28;20116;-66
2023/07/03 06:05:50;;;;;;;14.10;3.03;;;;;;;18.83;83.31;101035.31;5050272;28;20401;-61
2023/07/03 06:08:16;;;;;;;7.88;2.22;;;;;;;19.02;82.58;101021.59;5029774;28;20115;-66
2023/07/03 06:10:41;;;;;;;11.63;3.63;;;;;;;19.06;82.52;101019.59;5048846;28;20104;-62
2023/07/03 06:13:07;;;;;;;10.73;2.55;;;;;;;19.13;82.41;101028.06;5048071;28;20595;-63
2023/07/03 06:15:34;;;;;;;10.48;2.17;;;;;;;19.11;83.38;101016.66;5048166;28;20039;-67
2023/07/03 06:18:02;;;;;;;13.57;2.40;;;;;;;19.14;83.38;101019.94;5048426;28;20021;-62
2023/07/03 06:20:27;;;;;;;11.15;2.40;;;;;;;19.12;82.90;101013.00;5049063;28;20032;-62
2023/07/03 06:22:53;;;;;;;10.02;2.30;;;;;;;19.07;82.42;101021.28;5048633;28;20060;-64
2023/07/03 06:25:18;;;;;;;13.93;2.55;;;;;;;18.94;83.64;101023.94;5047220;28;20037;-64
2023/07/03 06:27:43;;;;;;;11.07;2.38;;;;;;;18.88;83.85;101040.34;5047480;28;20041;-61
2023/07/03 06:30:09;;;;;;;11.35;2.72;;;;;;;18.86;84.00;101026.25;5046726;28;20605;-63
2023/07/03 06:32:36;;;;;;;11.85;2.63;;;;;;;18.86;84.44;101036.91;5045026;28;20116;-62
2023/07/03 06:35:02;;;;;;;14.10;2.65;;;;;;;19.09;84.56;101021.22;5046636;28;20052;-65
2023/07/03 06:37:27;;;;;;;15.02;2.47;;;;;;;19.18;84.10;101023.28;5045958;28;20027;-63
2023/07/03 06:39:53;;;;;;;14.13;3.00;;;;;;;19.22;84.23;101038.13;5029966;28;20148;-62
2023/07/03 06:42:18;;;;;;;17.42;3.17;;;;;;;19.34;83.49;101044.44;5047428;28;20033;-62
2023/07/03 06:44:43;;;;;;;8.57;2.22;;;;;;;19.25;83.30;101037.94;5047137;28;20438;-60
2023/07/03 06:47:09;;;;;;;15.43;2.33;;;;;;;19.11;81.69;101036.16;5047880;28;20058;-63
2023/07/03 06:49:36;;;;;;;11.77;2.70;;;;;;;19.15;82.88;101037.66;5046884;28;20074;-63
2023/07/03 06:52:01;;;;;;;11.57;2.42;;;;;;;19.21;81.62;101046.25;5046964;28;20098;-62
2023/07/03 06:54:26;;;;;;;14.10;2.42;;;;;;;19.14;81.92;101041.31;5047342;28;20480;-62
2023/07/03 06:56:52;;;;;;;12.38;2.55;;;;;;;19.21;82.33;101051.59;5046237;28;20056;-64
2023/07/03 06:59:17;;;;;;;12.23;3.20;;;;;;;19.30;82.31;101041.13;5048686;28;20038;-62
2023/07/03 07:01:42;;;;;;;14.25;2.70;;;;;;;19.43;82.90;101043.84;5047630;28;20017;-61
2023/07/03 07:04:09;;;;;;;13.30;2.00;;;;;;;19.53;81.60;101060.06;5048282;28;20492;-63
2023/07/03 07:06:34;;;;;;;8.23;2.33;;;;;;;19.59;81.22;101045.44;5044788;28;20040;-64
2023/07/03 07:09:00;;;;;;;11.55;2.85;;;;;;;19.53;79.92;101056.53;5038413;28;20031;-59
2023/07/03 07:11:27;;;;;;;11.02;2.60;;;;;;;19.77;79.95;101045.97;5046693;28;20112;-64
2023/07/03 07:13:55;;;;;;;13.38;2.78;;;;;;;19.70;81.09;101050.03;5048516;28;20040;-61
2023/07/03 07:16:23;;;;;;;13.90;3.05;;;;;;;19.68;79.75;101042.13;5046189;28;20036;-62
2023/07/03 07:18:56;;;;;;;9.45;2.50;;;;;;;19.74;81.11;101053.38;5046525;28;20098;-62
2023/07/03 07:21:23;;;;;;;10.02;2.17;;;;;;;19.61;80.99;101048.88;5043463;28;20021;-65
2023/07/03 07:23:53;;;;;;;13.65;2.70;;;;;;;19.50;80.15;101051.44;5046595;28;20045;-64
2023/07/03 07:26:19;;;;;;;10.05;2.60;;;;;;;19.54;81.10;101060.94;5043552;28;20041;-61
2023/07/03 07:28:44;;;;;;;9.50;2.22;;;;;;;19.50;81.47;101052.28;5045844;28;20039;-62
2023/07/03 07:31:09;;;;;;;10.52;2.42;;;;;;;19.26;81.48;101061.00;5046992;28;20025;-62
2023/07/03 07:33:35;;;;;;;11.18;2.33;;;;;;;19.25;81.38;101075.31;5046905;28;20115;-64
2023/07/03 07:36:00;;;;;;;10.70;2.00;;;;;;;19.38;82.58;101078.00;5047674;28;20013;-61
2023/07/03 07:38:26;;;;;;;10.02;2.20;;;;;;;19.58;80.04;101054.41;5046921;28;20116;-64
2023/07/03 07:41:01;;;;;;;11.60;2.42;;;;;;;19.89;79.01;101057.63;5048016;28;20400;-62
2023/07/03 07:43:26;;;;;;;6.55;1.50;;;;;;;19.76;80.62;101067.47;5043150;28;20017;-62
2023/07/03 07:45:52;;;;;;;10.65;1.92;;;;;;;19.78;80.71;101066.38;5047693;28;20025;-66
2023/07/03 07:48:18;;;;;;;11.02;2.35;;;;;;;19.67;81.18;101069.84;5036793;28;20028;-65
2023/07/03 07:50:43;;;;;;;11.27;2.20;;;;;;;19.73;81.47;101062.31;5036931;28;20086;-58
2023/07/03 07:53:08;;;;;;;12.35;2.25;;;;;;;19.63;82.54;101075.50;5046196;28;20507;-64
2023/07/03 07:55:35;;;;;;;9.25;1.83;;;;;;;19.69;82.02;101075.06;5046922;28;20381;-62
2023/07/03 07:58:01;;;;;;;16.60;2.42;;;;;;;19.62;82.16;101084.47;5046725;28;20491;-64
2023/07/03 08:00:26;;;;;;;10.90;2.35;;;;;;;19.86;82.65;101070.38;5045800;28;20028;-62
2023/07/03 08:02:52;;;;;;;11.43;2.08;;;;;;;19.97;83.74;101075.81;5046724;28;20055;-63
2023/07/03 08:05:17;;;;;;;8.75;2.63;;;;;;;20.02;84.33;101068.34;5043898;28;20435;-61
2023/07/03 08:07:42;;;;;;;7.97;2.40;;;;;;;20.23;84.23;101070.47;5042897;28;20040;-64
2023/07/03 08:10:08;;;;;;;12.10;2.28;;;;;;;20.31;84.39;101072.56;5045797;28;20062;-63
2023/07/03 08:12:34;;;;;;;13.15;2.40;;;;;;;20.03;83.56;101071.88;5046933;28;20037;-62
2023/07/03 08:14:59;;;;;;;11.88;2.20;;;;;;;19.85;83.95;101100.72;5046349;28;20231;-64
2023/07/03 08:17:25;;;;;;;13.00;2.55;;;;;;;19.80;85.17;101085.00;5043276;28;20511;-64
2023/07/03 08:19:50;;;;;;;11.50;2.50;;;;;;;19.79;84.62;101097.53;5046808;28;20021;-60
2023/07/03 08:22:15;;;;;;;10.02;2.40;;;;;;;19.95;84.84;101083.94;5044634;28;20114;-65
2023/07/03 08:24:41;;;;;;;9.30;2.25;;;;;;;19.97;85.11;101081.16;5046833;28;20017;-62
2023/07/03 08:27:06;;;;;;;12.02;2.60;;;;;;;20.15;83.42;101092.41;5045263;28;20386;-64
2023/07/03 08:29:32;;;;;;;10.43;2.45;;;;;;;20.39;83.29;101102.34;5046677;28;20103;-61
2023/07/03 08:31:57;;;;;;;14.80;2.10;;;;;;;20.51;82.88;101089.03;5045891;28;20890;-64
2023/07/03 08:34:22;;;;;;;12.75;2.22;;;;;;;20.52;80.25;101091.59;5045810;28;20475;-62
2023/07/03 08:36:48;;;;;;;8.82;2.08;;;;;;;20.45;78.93;101095.69;5045008;28;20063;-64
2023/07/03 08:39:13;;;;;;;10.82;2.15;;;;;;;20.58;79.10;101090.28;5046676;28;20116;-66
2023/07/03 08:41:45;;;;;;;7.72;2.15;;;;;;;20.58;78.65;101090.28;5045396;28;20029;-65
2023/07/03 08:44:11;;;;;;;9.63;2.25;;;;;;;20.42;78.20;101091.41;5036748;28;20484;-64
2023/07/03 08:46:37;;;;;;;16.67;2.60;;;;;;;20.49;78.94;101094.47;5045478;28;20021;-60
2023/07/03 08:49:04;;;;;;;11.75;2.20;;;;;;;20.27;79.80;101098.72;5036278;28;20372;-62
2023/07/03 08:51:30;;;;;;;10.10;2.10;;;;;;;20.12;79.58;101089.97;5034675;28;20036;-63
2023/07/03 08:54:00;;;;;;;11.00;2.60;;;;;;;19.96;80.71;101090.16;5045594;28;20033;-64
2023/07/03 08:56:28;;;;;;;14.95;3.03;;;;;;;20.08;80.87;101093.81;5036444;28;20810;-65
2023/07/03 08:58:55;;;;;;;17.77;2.58;;;;;;;20.12;82.28;101091.75;5049573;28;20437;-62
2023/07/03 09:01:42;;;;;;;16.13;2.63;;;;;;;20.32;81.82;101085.00;5035576;28;20051;-60
2023/07/03 09:04:25;;;;;;;9.60;2.78;;;;;;;20.40;81.40;101093.34;5044885;28;20067;-60
2023/07/03 09:07:04;;;;;;;11.75;2.67;;;;;;;20.27;81.65;101089.81;5045747;28;20025;-60
2023/07/03 09:09:36;;;;;;;11.25;2.42;;;;;;;20.17;80.42;101100.34;5037930;28;20057;-63
2023/07/03 09:12:07;;;;;;;13.45;2.92;;;;;;;20.17;80.68;101103.84;5045427;28;20025;-61
2023/07/03 09:14:37;;;;;;;10.82;3.30;;;;;;;20.11;80.60;101093.59;5036198;28;20029;-62
2023/07/03 09:17:09;;;;;;;16.45;2.90;;;;;;;20.03;81.46;101104.84;5036258;28;20031;-61
2023/07/03 09:19:37;;;;;;;11.32;2.63;;;;;;;19.96;83.07;101114.22;5046594;28;20021;-64
2023/07/03 09:22:05;;;;;;;12.18;2.47;;;;;;;20.00;82.69;101112.19;5039654;28;20025;-64
2023/07/03 09:24:36;;;;;;;12.60;2.88;;;;;;;20.11;80.12;101112.31;5037289;28;20139;-64
2023/07/03 09:27:22;;;;;;;11.20;3.22;;;;;;;20.54;80.15;101104.88;5055873;28;20384;-62
2023/07/03 09:29:48;;;;;;;10.60;3.10;;;;;;;20.82;80.09;101100.16;5037365;28;20025;-60
2023/07/03 09:32:28;;;;;;;13.43;3.03;;;;;;;20.70;80.01;101102.78;5045755;28;20018;-63
2023/07/03 09:35:15;;;;;;;10.05;2.85;;;;;;;20.41;81.89;101100.38;5047843;28;20035;-62
2023/07/03 09:37:47;;;;;;;11.05;2.70;;;;;;;20.11;82.59;101112.31;5047489;28;20044;-62
2023/07/03 09:40:15;;;;;;;14.20;2.83;;;;;;;20.02;84.15;101108.44;5049680;28;20376;-61
2023/07/03 09:42:41;;;;;;;13.25;2.67;;;;;;;19.91;86.04;101111.88;5038805;28;20388;-64
2023/07/03 09:45:19;;;;;;;11.30;2.75;;;;;;;20.07;86.05;101124.19;5048671;28;20037;-62
2023/07/03 09:47:55;;;;;;;12.18;2.83;;;;;;;20.16;86.05;101111.97;5048981;28;20021;-63
2023/07/03 09:50:24;;;;;;;11.88;2.90;;;;;;;20.42;84.73;101104.78;5050004;28;20033;-60
2023/07/03 09:52:50;;;;;;;;;;;;;;;21.02;82.32;101105.91;5039422;28;20024;-62
2023/07/03 09:55:15;;;;;;;9.55;2.20;;;;;;;21.21;79.68;101108.91;5047769;28;20350;-62
2023/07/03 09:57:41;;;;;;;8.25;2.63;;;;;;;21.10;77.56;101106.16;5048944;28;20461;-61
2023/07/03 10:00:15;;;;;;;11.98;3.42;;;;;;;21.06;77.87;101104.69;5046658;28;20021;-64
2023/07/03 10:02:44;;;;;;;16.67;3.22;;;;;;;20.78;79.04;101096.88;5049004;28;20663;-63
2023/07/03 10:05:17;;;;;;;15.55;2.65;;;;;;;21.18;76.45;101108.28;5048606;28;20076;-63
2023/07/03 10:07:45;;;;;;;13.23;2.63;;;;;;;21.45;74.78;101109.84;5039015;28;20025;-64
2023/07/03 10:10:19;;;;;;;10.48;2.83;;;;;;;21.62;74.39;101121.97;5048376;28;20047;-65
2023/07/03 10:13:12;;;;;;;18.38;3.33;;;;;;;21.73;73.57;101117.63;5039584;28;20025;-62
2023/07/03 10:15:39;;;;;;;11.75;2.83;;;;;;;21.59;75.90;101100.75;5046510;28;20037;-63
2023/07/03 10:18:19;;;;;;;14.52;2.90;;;;;;;21.36;75.43;101115.91;5033910;28;20492;-63
2023/07/03 10:20:46;;;;;;;11.68;2.55;;;;;;;21.25;75.82;101136.31;5036360;28;20649;-63
2023/07/03 10:23:24;;;;;;;11.68;2.88;;;;;;;21.29;74.48;101120.88;5038463;28;20063;-63
2023/07/03 10:25:54;;;;;;;12.57;2.90;;;;;;;21.14;74.59;101139.81;5055755;28;20027;-63
2023/07/03 10:28:33;;;;;;;10.15;2.80;;;;;;;21.15;73.31;101135.31;5059134;28;20025;-64
2023/07/03 10:31:02;;;;;;;11.57;2.65;;;;;;;20.98;74.06;101160.69;5046435;28;20048;-62
2023/07/03 10:33:32;;;;;;;12.38;2.45;;;;;;;20.87;76.31;101154.25;5033863;28;20469;-60
2023/07/03 10:35:59;;;;;;;12.73;3.00;;;;;;;20.57;77.99;101142.13;5036052;28;20040;-63
2023/07/03 10:38:27;;;;;;;10.80;2.20;;;;;;;20.49;76.32;101148.00;5048200;28;20392;-61
2023/07/03 10:41:29;;;;;;;14.25;2.60;;;;;;;20.11;78.61;101147.09;5033087;28;20112;-64
2023/07/03 10:44:25;;;;;;;7.03;2.63;;;;;;;20.20;80.21;101153.63;4956629;28;20035;-63
2023/07/03 10:46:53;;;;;;;14.75;2.92;;;;;;;20.67;80.55;101139.63;5035150;28;20059;-61
2023/07/03 10:49:25;;;;;;;11.77;3.08;;;;;;;20.77;79.50;101143.34;5049348;28;20029;-63
2023/07/03 10:51:58;;;;;;;15.23;2.60;;;;;;;20.81;79.57;101144.84;5029837;28;20025;-60
2023/07/03 10:54:34;;;;;;;9.32;2.53;;;;;;;20.56;80.88;101146.59;5031000;28;20151;-61
2023/07/03 10:57:02;;;;;;;14.68;3.55;;;;;;;20.45;82.27;101141.19;5051625;28;20053;-62
2023/07/03 10:59:29;;;;;;;13.25;3.28;;;;;;;20.35;83.43;101142.78;5011617;28;20026;-61
2023/07/03 11:02:17;;;;;;;9.57;2.60;;;;;;;20.42;84.64;101161.00;5038014;28;20041;-58
2023/07/03 11:04:45;;;;;;;17.02;2.78;;;;;;;20.91;82.01;101133.47;5049357;28;20029;-60
2023/07/03 11:07:14;;;;;;;14.40;2.77;;;;;;;21.50;80.02;101147.91;5045345;28;20455;-59
2023/07/03 11:09:44;;;;;;;10.15;2.22;;;;;;;21.94;73.25;101125.81;5047953;28;20358;-59
2023/07/03 11:12:52;;;;;;;11.77;2.55;;;;;;;22.20;72.56;101137.22;5058148;28;20021;-60
2023/07/03 11:15:17;;;;;;;14.48;2.45;;;;;;;22.16;70.59;101134.88;5037441;28;20761;-61
2023/07/03 11:18:01;;;;;;;8.98;2.20;;;;;;;21.86;64.50;101137.19;5046362;28;20029;-61
2023/07/03 11:20:35;;;;;;;13.68;2.58;;;;;;;21.90;65.53;101138.63;5061707;28;20024;-65
2023/07/03 11:23:12;;;;;;;9.73;2.05;;;;;;;21.65;64.37;101136.97;5044393;28;20033;-64
2023/07/03 11:26:01;;;;;;;12.88;2.15;;;;;;;21.46;66.83;101133.84;5048711;28;20033;-63